Unicom:                    122.8

AWOS:                  118.275

Elevation           1458’ MSL

TPA:                   2500’ MSL

06/24:         5003’ L   75’ W

PAPI:       06/Left     24/Left

(Operate lights on unicom freq.)

Traffic Pattern: Left

Beacon: Sunset to Sunrise

Windsock: yes, lighted

Segmented Circle: No

 

Cleveland Center: 126.72/291.65

FSS: Altoona

[Source: ADDS]
METAR
KFKL 191456Z AUTO 14006KT 6SM -RA BR BKN003 10/09 A3023 RMK AO2 SLP240 P0007 60024 T01000094 58001 =
KFKL 191333Z 1914/2012 11004KT 2SM -RA BR OVC003 FM192100 16005KT 6SM -RA OVC005 WS020/23040KT FM200800 VRB03KT 2SM -RA BR OVC002 WS020/23040KT
TAF
KFKL 191333Z 1914/2012 11004KT 2SM -RA BR OVC003 FM192100 16005KT 6SM -RA OVC005 WS020/23040KT FM200800 VRB03KT 2SM -RA BR OVC002 WS020/23040KT =
[Source: ADDS]
METAR
KDUJ 191453Z AUTO 12003KT 4SM -RA BR BKN048 OVC060 09/07 A3025 RMK AO2 SLP248 P0016 60017 T00890067 51013 =
KDUJ 191333Z 1914/2012 11003KT P6SM OVC050 FM191700 00000KT 6SM -RA OVC015 FM191900 16005KT 4SM -RA BR OVC004 FM192200 17006KT P6SM OVC008 WS020/23030KT FM200900 19006KT 5SM -RA OVC004 WS020/23030KT
TAF
KDUJ 191333Z 1914/2012 11003KT P6SM OVC050 FM191700 00000KT 6SM -RA OVC015 FM191900 16005KT 4SM -RA BR OVC004 FM192200 17006KT P6SM OVC008 WS020/23030KT FM200900 19006KT 5SM -RA OVC004 WS020/23030KT =

Airport Information. 

Runway Length: 5003ft x 75ft

Runways 6/24

Traffic Pattern: Left

PAPI’s: 2 light PAPI on left of both 6/24

TPA: 2500 msl

Field Elevation: 1458 msl

Surface: Asphalt

Beacon: Operates Sunset-Sunrise

Pilot Controlled Lighting:  yes 122.8

 

Fuel:

Jet-A w/prist

100 LL

Center point fueling available upon request.

 

Unicom Frequency: 122.8

AWOS Frequency: 118.27  (814-227-2899)

 

Cleveland Center: 126.72 (440-774-0442)

 

GPS Approach Plates for 6/24 download here: http://www.airnav.com/airport/KAXQ

[Source: ADDS]
METAR
KFKL 191456Z AUTO 14006KT 6SM -RA BR BKN003 10/09 A3023 RMK AO2 SLP240 P0007 60024 T01000094 58001 =
KFKL 191333Z 1914/2012 11004KT 2SM -RA BR OVC003 FM192100 16005KT 6SM -RA OVC005 WS020/23040KT FM200800 VRB03KT 2SM -RA BR OVC002 WS020/23040KT
TAF
KFKL 191333Z 1914/2012 11004KT 2SM -RA BR OVC003 FM192100 16005KT 6SM -RA OVC005 WS020/23040KT FM200800 VRB03KT 2SM -RA BR OVC002 WS020/23040KT =
[Source: ADDS]
METAR
KDUJ 191453Z AUTO 12003KT 4SM -RA BR BKN048 OVC060 09/07 A3025 RMK AO2 SLP248 P0016 60017 T00890067 51013 =
KDUJ 191333Z 1914/2012 11003KT P6SM OVC050 FM191700 00000KT 6SM -RA OVC015 FM191900 16005KT 4SM -RA BR OVC004 FM192200 17006KT P6SM OVC008 WS020/23030KT FM200900 19006KT 5SM -RA OVC004 WS020/23030KT
TAF
KDUJ 191333Z 1914/2012 11003KT P6SM OVC050 FM191700 00000KT 6SM -RA OVC015 FM191900 16005KT 4SM -RA BR OVC004 FM192200 17006KT P6SM OVC008 WS020/23030KT FM200900 19006KT 5SM -RA OVC004 WS020/23030KT =